sensor_id;sensor_type;location;lat;lon;timestamp;P1;durP1;ratioP1;P2;durP2;ratioP2
69627;SDS011;56850;51.984;5.088;2022-08-30T00:02:09;7.47;;;3.00;;
69627;SDS011;56850;51.984;5.088;2022-08-30T00:04:36;6.93;;;3.05;;
69627;SDS011;56850;51.984;5.088;2022-08-30T00:07:02;5.43;;;2.50;;
69627;SDS011;56850;51.984;5.088;2022-08-30T00:09:30;8.25;;;3.03;;
69627;SDS011;56850;51.984;5.088;2022-08-30T00:11:58;5.57;;;3.30;;
69627;SDS011;56850;51.984;5.088;2022-08-30T00:14:25;6.32;;;3.13;;
69627;SDS011;56850;51.984;5.088;2022-08-30T00:16:52;5.65;;;3.22;;
69627;SDS011;56850;51.984;5.088;2022-08-30T00:19:19;5.05;;;2.63;;
69627;SDS011;56850;51.984;5.088;2022-08-30T00:21:46;7.28;;;3.65;;
69627;SDS011;56850;51.984;5.088;2022-08-30T00:24:13;4.57;;;2.75;;
69627;SDS011;56850;51.984;5.088;2022-08-30T00:26:40;6.25;;;3.28;;
69627;SDS011;56850;51.984;5.088;2022-08-30T00:29:07;8.45;;;3.67;;
69627;SDS011;56850;51.984;5.088;2022-08-30T00:31:34;5.07;;;3.35;;
69627;SDS011;56850;51.984;5.088;2022-08-30T00:34:01;7.30;;;2.93;;
69627;SDS011;56850;51.984;5.088;2022-08-30T00:36:28;5.22;;;3.20;;
69627;SDS011;56850;51.984;5.088;2022-08-30T00:38:55;6.65;;;2.85;;
69627;SDS011;56850;51.984;5.088;2022-08-30T00:41:21;8.25;;;3.45;;
69627;SDS011;56850;51.984;5.088;2022-08-30T00:43:48;8.10;;;3.20;;
69627;SDS011;56850;51.984;5.088;2022-08-30T00:46:15;5.33;;;3.30;;
69627;SDS011;56850;51.984;5.088;2022-08-30T00:48:44;5.70;;;2.83;;
69627;SDS011;56850;51.984;5.088;2022-08-30T00:51:14;4.47;;;3.05;;
69627;SDS011;56850;51.984;5.088;2022-08-30T00:53:43;5.82;;;3.50;;
69627;SDS011;56850;51.984;5.088;2022-08-30T00:56:13;6.57;;;3.75;;
69627;SDS011;56850;51.984;5.088;2022-08-30T00:58:42;6.10;;;3.20;;
69627;SDS011;56850;51.984;5.088;2022-08-30T01:01:12;11.02;;;3.10;;
69627;SDS011;56850;51.984;5.088;2022-08-30T01:03:39;6.55;;;3.28;;
69627;SDS011;56850;51.984;5.088;2022-08-30T01:06:08;5.78;;;3.45;;
69627;SDS011;56850;51.984;5.088;2022-08-30T01:08:36;4.65;;;3.72;;
69627;SDS011;56850;51.984;5.088;2022-08-30T01:11:04;6.00;;;3.13;;
69627;SDS011;56850;51.984;5.088;2022-08-30T01:13:31;3.78;;;3.10;;
69627;SDS011;56850;51.984;5.088;2022-08-30T01:16:00;6.22;;;3.53;;
69627;SDS011;56850;51.984;5.088;2022-08-30T01:18:28;6.03;;;3.10;;
69627;SDS011;56850;51.984;5.088;2022-08-30T01:21:06;6.88;;;3.67;;
69627;SDS011;56850;51.984;5.088;2022-08-30T01:23:42;6.17;;;3.47;;
69627;SDS011;56850;51.984;5.088;2022-08-30T01:26:13;7.22;;;3.92;;
69627;SDS011;56850;51.984;5.088;2022-08-30T01:28:41;7.93;;;3.60;;
69627;SDS011;56850;51.984;5.088;2022-08-30T01:31:14;5.40;;;3.80;;
69627;SDS011;56850;51.984;5.088;2022-08-30T01:33:41;6.22;;;3.90;;
69627;SDS011;56850;51.984;5.088;2022-08-30T01:36:09;7.33;;;3.80;;
69627;SDS011;56850;51.984;5.088;2022-08-30T01:38:48;5.35;;;3.45;;
69627;SDS011;56850;51.984;5.088;2022-08-30T01:41:32;5.95;;;3.63;;
69627;SDS011;56850;51.984;5.088;2022-08-30T01:44:06;6.68;;;3.88;;
69627;SDS011;56850;51.984;5.088;2022-08-30T01:46:38;6.53;;;3.90;;
69627;SDS011;56850;51.984;5.088;2022-08-30T01:49:08;6.33;;;3.90;;
69627;SDS011;56850;51.984;5.088;2022-08-30T01:51:38;6.35;;;4.00;;
69627;SDS011;56850;51.984;5.088;2022-08-30T01:54:05;5.05;;;4.05;;
69627;SDS011;56850;51.984;5.088;2022-08-30T01:56:33;6.65;;;4.32;;
69627;SDS011;56850;51.984;5.088;2022-08-30T01:59:00;6.85;;;4.15;;
69627;SDS011;56850;51.984;5.088;2022-08-30T02:01:28;9.17;;;4.57;;
69627;SDS011;56850;51.984;5.088;2022-08-30T02:03:58;6.93;;;4.10;;
69627;SDS011;56850;51.984;5.088;2022-08-30T02:06:25;6.38;;;4.35;;
69627;SDS011;56850;51.984;5.088;2022-08-30T02:08:53;5.93;;;4.40;;
69627;SDS011;56850;51.984;5.088;2022-08-30T02:11:20;8.43;;;4.75;;
69627;SDS011;56850;51.984;5.088;2022-08-30T02:13:47;4.80;;;3.83;;
69627;SDS011;56850;51.984;5.088;2022-08-30T02:16:16;9.10;;;4.90;;
69627;SDS011;56850;51.984;5.088;2022-08-30T02:18:45;5.38;;;4.20;;
69627;SDS011;56850;51.984;5.088;2022-08-30T02:21:12;5.80;;;4.70;;
69627;SDS011;56850;51.984;5.088;2022-08-30T02:23:40;7.85;;;5.00;;
69627;SDS011;56850;51.984;5.088;2022-08-30T02:26:07;6.07;;;4.53;;
69627;SDS011;56850;51.984;5.088;2022-08-30T02:28:36;7.43;;;4.78;;
69627;SDS011;56850;51.984;5.088;2022-08-30T02:31:15;6.72;;;4.60;;
69627;SDS011;56850;51.984;5.088;2022-08-30T02:33:45;7.18;;;4.40;;
69627;SDS011;56850;51.984;5.088;2022-08-30T02:36:12;9.85;;;5.32;;
69627;SDS011;56850;51.984;5.088;2022-08-30T02:38:40;7.93;;;5.03;;
69627;SDS011;56850;51.984;5.088;2022-08-30T02:41:07;6.60;;;4.45;;
69627;SDS011;56850;51.984;5.088;2022-08-30T02:43:34;9.80;;;5.22;;
69627;SDS011;56850;51.984;5.088;2022-08-30T02:46:01;5.90;;;4.35;;
69627;SDS011;56850;51.984;5.088;2022-08-30T02:48:28;6.72;;;4.60;;
69627;SDS011;56850;51.984;5.088;2022-08-30T02:50:55;6.23;;;4.60;;
69627;SDS011;56850;51.984;5.088;2022-08-30T02:53:22;5.85;;;5.20;;
69627;SDS011;56850;51.984;5.088;2022-08-30T02:55:52;7.25;;;5.40;;
69627;SDS011;56850;51.984;5.088;2022-08-30T02:58:19;7.80;;;5.18;;
69627;SDS011;56850;51.984;5.088;2022-08-30T03:00:46;9.05;;;5.60;;
69627;SDS011;56850;51.984;5.088;2022-08-30T03:03:13;6.73;;;5.30;;
69627;SDS011;56850;51.984;5.088;2022-08-30T03:05:40;7.72;;;4.85;;
69627;SDS011;56850;51.984;5.088;2022-08-30T03:08:07;6.07;;;4.90;;
69627;SDS011;56850;51.984;5.088;2022-08-30T03:10:35;7.55;;;5.28;;
69627;SDS011;56850;51.984;5.088;2022-08-30T03:13:04;6.20;;;5.45;;
69627;SDS011;56850;51.984;5.088;2022-08-30T03:15:33;6.10;;;5.10;;
69627;SDS011;56850;51.984;5.088;2022-08-30T03:18:02;7.05;;;4.90;;
69627;SDS011;56850;51.984;5.088;2022-08-30T03:20:29;8.63;;;5.03;;
69627;SDS011;56850;51.984;5.088;2022-08-30T03:22:56;6.22;;;5.32;;
69627;SDS011;56850;51.984;5.088;2022-08-30T03:25:23;7.18;;;5.38;;
69627;SDS011;56850;51.984;5.088;2022-08-30T03:27:50;7.13;;;5.60;;
69627;SDS011;56850;51.984;5.088;2022-08-30T03:30:18;8.70;;;6.22;;
69627;SDS011;56850;51.984;5.088;2022-08-30T03:32:45;9.20;;;6.00;;
69627;SDS011;56850;51.984;5.088;2022-08-30T03:35:13;6.95;;;5.28;;
69627;SDS011;56850;51.984;5.088;2022-08-30T03:37:41;8.77;;;5.97;;
69627;SDS011;56850;51.984;5.088;2022-08-30T03:40:09;9.27;;;5.77;;
69627;SDS011;56850;51.984;5.088;2022-08-30T03:42:38;8.88;;;6.25;;
69627;SDS011;56850;51.984;5.088;2022-08-30T03:45:08;6.50;;;5.82;;
69627;SDS011;56850;51.984;5.088;2022-08-30T03:47:36;8.30;;;6.20;;
69627;SDS011;56850;51.984;5.088;2022-08-30T03:50:06;9.23;;;6.47;;
69627;SDS011;56850;51.984;5.088;2022-08-30T03:52:33;10.07;;;6.57;;
69627;SDS011;56850;51.984;5.088;2022-08-30T03:55:00;7.78;;;5.93;;
69627;SDS011;56850;51.984;5.088;2022-08-30T03:57:27;9.18;;;6.35;;
69627;SDS011;56850;51.984;5.088;2022-08-30T03:59:54;9.73;;;6.35;;
69627;SDS011;56850;51.984;5.088;2022-08-30T04:02:21;7.47;;;6.18;;
69627;SDS011;56850;51.984;5.088;2022-08-30T04:04:49;8.27;;;6.63;;
69627;SDS011;56850;51.984;5.088;2022-08-30T04:07:16;8.75;;;6.78;;
69627;SDS011;56850;51.984;5.088;2022-08-30T04:09:45;9.02;;;5.85;;
69627;SDS011;56850;51.984;5.088;2022-08-30T04:12:12;8.07;;;6.68;;
69627;SDS011;56850;51.984;5.088;2022-08-30T04:14:43;7.65;;;6.60;;
69627;SDS011;56850;51.984;5.088;2022-08-30T04:17:10;8.10;;;6.67;;
69627;SDS011;56850;51.984;5.088;2022-08-30T04:19:37;8.70;;;6.50;;
69627;SDS011;56850;51.984;5.088;2022-08-30T04:22:04;8.88;;;6.65;;
69627;SDS011;56850;51.984;5.088;2022-08-30T04:24:31;8.25;;;6.85;;
69627;SDS011;56850;51.984;5.088;2022-08-30T04:26:59;9.70;;;7.20;;
69627;SDS011;56850;51.984;5.088;2022-08-30T04:29:26;10.87;;;6.67;;
69627;SDS011;56850;51.984;5.088;2022-08-30T04:31:53;8.73;;;7.70;;
69627;SDS011;56850;51.984;5.088;2022-08-30T04:34:21;8.80;;;6.97;;
69627;SDS011;56850;51.984;5.088;2022-08-30T04:36:48;9.70;;;7.30;;
69627;SDS011;56850;51.984;5.088;2022-08-30T04:39:18;10.85;;;7.00;;
69627;SDS011;56850;51.984;5.088;2022-08-30T04:41:45;8.13;;;7.33;;
69627;SDS011;56850;51.984;5.088;2022-08-30T04:44:13;10.43;;;7.07;;
69627;SDS011;56850;51.984;5.088;2022-08-30T04:46:44;8.00;;;7.25;;
69627;SDS011;56850;51.984;5.088;2022-08-30T04:49:12;9.23;;;7.40;;
69627;SDS011;56850;51.984;5.088;2022-08-30T04:51:39;10.52;;;7.40;;
69627;SDS011;56850;51.984;5.088;2022-08-30T04:54:06;7.50;;;6.80;;
69627;SDS011;56850;51.984;5.088;2022-08-30T04:56:33;12.23;;;6.53;;
69627;SDS011;56850;51.984;5.088;2022-08-30T04:58:59;10.98;;;6.88;;
69627;SDS011;56850;51.984;5.088;2022-08-30T05:01:28;9.73;;;8.10;;
69627;SDS011;56850;51.984;5.088;2022-08-30T05:04:02;14.32;;;7.65;;
69627;SDS011;56850;51.984;5.088;2022-08-30T05:06:29;9.50;;;7.70;;
69627;SDS011;56850;51.984;5.088;2022-08-30T05:08:56;8.27;;;7.07;;
69627;SDS011;56850;51.984;5.088;2022-08-30T05:11:25;9.63;;;7.43;;
69627;SDS011;56850;51.984;5.088;2022-08-30T05:13:53;8.10;;;7.03;;
69627;SDS011;56850;51.984;5.088;2022-08-30T05:16:20;10.63;;;7.70;;
69627;SDS011;56850;51.984;5.088;2022-08-30T05:18:48;12.00;;;6.93;;
69627;SDS011;56850;51.984;5.088;2022-08-30T05:21:18;9.27;;;7.13;;
69627;SDS011;56850;51.984;5.088;2022-08-30T05:23:52;7.82;;;6.95;;
69627;SDS011;56850;51.984;5.088;2022-08-30T05:26:25;10.70;;;6.55;;
69627;SDS011;56850;51.984;5.088;2022-08-30T05:28:57;6.90;;;6.20;;
69627;SDS011;56850;51.984;5.088;2022-08-30T05:31:28;7.87;;;6.97;;
69627;SDS011;56850;51.984;5.088;2022-08-30T05:33:57;8.82;;;6.47;;
69627;SDS011;56850;51.984;5.088;2022-08-30T05:36:25;9.05;;;6.32;;
69627;SDS011;56850;51.984;5.088;2022-08-30T05:38:54;10.73;;;6.32;;
69627;SDS011;56850;51.984;5.088;2022-08-30T05:41:22;7.70;;;6.15;;
69627;SDS011;56850;51.984;5.088;2022-08-30T05:43:52;8.83;;;6.60;;
69627;SDS011;56850;51.984;5.088;2022-08-30T05:46:23;8.55;;;6.70;;
69627;SDS011;56850;51.984;5.088;2022-08-30T05:48:51;6.22;;;5.13;;
69627;SDS011;56850;51.984;5.088;2022-08-30T05:51:19;8.07;;;6.35;;
69627;SDS011;56850;51.984;5.088;2022-08-30T05:53:48;7.43;;;6.32;;
69627;SDS011;56850;51.984;5.088;2022-08-30T05:56:19;7.27;;;6.00;;
69627;SDS011;56850;51.984;5.088;2022-08-30T05:58:51;7.90;;;6.35;;
69627;SDS011;56850;51.984;5.088;2022-08-30T06:01:19;11.93;;;6.85;;
69627;SDS011;56850;51.984;5.088;2022-08-30T06:03:57;8.43;;;6.32;;
69627;SDS011;56850;51.984;5.088;2022-08-30T06:06:30;7.70;;;5.70;;
69627;SDS011;56850;51.984;5.088;2022-08-30T06:09:01;7.90;;;6.60;;
69627;SDS011;56850;51.984;5.088;2022-08-30T06:11:31;8.43;;;6.28;;
69627;SDS011;56850;51.984;5.088;2022-08-30T06:13:59;9.10;;;6.07;;
69627;SDS011;56850;51.984;5.088;2022-08-30T06:16:26;11.38;;;6.20;;
69627;SDS011;56850;51.984;5.088;2022-08-30T06:18:55;6.72;;;5.68;;
69627;SDS011;56850;51.984;5.088;2022-08-30T06:21:26;9.93;;;6.03;;
69627;SDS011;56850;51.984;5.088;2022-08-30T06:23:56;9.07;;;6.10;;
69627;SDS011;56850;51.984;5.088;2022-08-30T06:26:24;8.07;;;6.28;;
69627;SDS011;56850;51.984;5.088;2022-08-30T06:28:52;6.70;;;5.90;;
69627;SDS011;56850;51.984;5.088;2022-08-30T06:31:20;9.35;;;6.00;;
69627;SDS011;56850;51.984;5.088;2022-08-30T06:33:48;7.83;;;5.97;;
69627;SDS011;56850;51.984;5.088;2022-08-30T06:36:17;8.07;;;5.68;;
69627;SDS011;56850;51.984;5.088;2022-08-30T06:38:48;7.30;;;5.70;;
69627;SDS011;56850;51.984;5.088;2022-08-30T06:41:17;7.40;;;5.70;;
69627;SDS011;56850;51.984;5.088;2022-08-30T06:43:47;9.88;;;5.97;;
69627;SDS011;56850;51.984;5.088;2022-08-30T06:46:16;7.83;;;5.47;;
69627;SDS011;56850;51.984;5.088;2022-08-30T06:48:45;6.60;;;4.85;;
69627;SDS011;56850;51.984;5.088;2022-08-30T06:51:14;6.85;;;5.38;;
69627;SDS011;56850;51.984;5.088;2022-08-30T06:53:45;6.75;;;4.40;;
69627;SDS011;56850;51.984;5.088;2022-08-30T06:56:13;8.20;;;4.65;;
69627;SDS011;56850;51.984;5.088;2022-08-30T06:58:42;7.43;;;4.90;;
69627;SDS011;56850;51.984;5.088;2022-08-30T07:01:16;9.52;;;4.40;;
69627;SDS011;56850;51.984;5.088;2022-08-30T07:03:46;4.95;;;4.45;;
69627;SDS011;56850;51.984;5.088;2022-08-30T07:06:13;10.70;;;4.40;;
69627;SDS011;56850;51.984;5.088;2022-08-30T07:08:40;7.32;;;4.28;;
69627;SDS011;56850;51.984;5.088;2022-08-30T07:11:07;8.23;;;4.23;;
69627;SDS011;56850;51.984;5.088;2022-08-30T07:13:34;7.55;;;3.92;;
69627;SDS011;56850;51.984;5.088;2022-08-30T07:16:11;5.95;;;3.92;;
69627;SDS011;56850;51.984;5.088;2022-08-30T07:18:39;4.70;;;3.53;;
69627;SDS011;56850;51.984;5.088;2022-08-30T07:21:20;6.28;;;3.20;;
69627;SDS011;56850;51.984;5.088;2022-08-30T07:23:49;3.93;;;3.10;;
69627;SDS011;56850;51.984;5.088;2022-08-30T07:26:21;5.65;;;2.90;;
69627;SDS011;56850;51.984;5.088;2022-08-30T07:28:57;5.57;;;2.95;;
69627;SDS011;56850;51.984;5.088;2022-08-30T07:31:24;4.93;;;2.85;;
69627;SDS011;56850;51.984;5.088;2022-08-30T07:33:51;4.45;;;3.20;;
69627;SDS011;56850;51.984;5.088;2022-08-30T07:36:18;6.77;;;3.10;;
69627;SDS011;56850;51.984;5.088;2022-08-30T07:38:50;4.82;;;3.00;;
69627;SDS011;56850;51.984;5.088;2022-08-30T07:41:19;6.00;;;3.28;;
69627;SDS011;56850;51.984;5.088;2022-08-30T07:43:48;5.45;;;2.92;;
69627;SDS011;56850;51.984;5.088;2022-08-30T07:46:16;3.63;;;2.92;;
69627;SDS011;56850;51.984;5.088;2022-08-30T07:48:43;3.50;;;2.43;;
69627;SDS011;56850;51.984;5.088;2022-08-30T07:51:14;6.00;;;2.50;;
69627;SDS011;56850;51.984;5.088;2022-08-30T07:53:43;4.80;;;2.53;;
69627;SDS011;56850;51.984;5.088;2022-08-30T07:56:10;3.22;;;2.20;;
69627;SDS011;56850;51.984;5.088;2022-08-30T07:58:37;5.20;;;2.40;;
69627;SDS011;56850;51.984;5.088;2022-08-30T08:01:05;5.87;;;2.40;;
69627;SDS011;56850;51.984;5.088;2022-08-30T08:03:34;4.30;;;2.10;;
69627;SDS011;56850;51.984;5.088;2022-08-30T08:06:02;5.53;;;2.22;;
69627;SDS011;56850;51.984;5.088;2022-08-30T08:08:30;4.25;;;2.17;;
69627;SDS011;56850;51.984;5.088;2022-08-30T08:10:59;5.53;;;2.13;;
69627;SDS011;56850;51.984;5.088;2022-08-30T08:13:32;4.28;;;2.10;;
69627;SDS011;56850;51.984;5.088;2022-08-30T08:16:23;3.80;;;2.10;;
69627;SDS011;56850;51.984;5.088;2022-08-30T08:18:52;3.83;;;2.25;;
69627;SDS011;56850;51.984;5.088;2022-08-30T08:21:20;3.83;;;2.38;;
69627;SDS011;56850;51.984;5.088;2022-08-30T08:23:48;7.55;;;2.30;;
69627;SDS011;56850;51.984;5.088;2022-08-30T08:26:15;3.65;;;1.75;;
69627;SDS011;56850;51.984;5.088;2022-08-30T08:28:42;2.70;;;1.90;;
69627;SDS011;56850;51.984;5.088;2022-08-30T08:33:45;3.83;;;1.85;;
69627;SDS011;56850;51.984;5.088;2022-08-30T08:36:12;3.45;;;1.80;;
69627;SDS011;56850;51.984;5.088;2022-08-30T08:38:40;4.82;;;1.70;;
69627;SDS011;56850;51.984;5.088;2022-08-30T08:43:58;3.00;;;1.58;;
69627;SDS011;56850;51.984;5.088;2022-08-30T08:46:37;2.88;;;1.40;;
69627;SDS011;56850;51.984;5.088;2022-08-30T08:49:13;3.30;;;1.48;;
69627;SDS011;56850;51.984;5.088;2022-08-30T08:51:40;5.25;;;1.83;;
69627;SDS011;56850;51.984;5.088;2022-08-30T08:54:28;3.00;;;1.50;;
69627;SDS011;56850;51.984;5.088;2022-08-30T08:57:00;3.88;;;1.80;;
69627;SDS011;56850;51.984;5.088;2022-08-30T08:59:27;4.60;;;1.80;;
69627;SDS011;56850;51.984;5.088;2022-08-30T09:01:57;3.20;;;1.90;;
69627;SDS011;56850;51.984;5.088;2022-08-30T09:04:32;5.38;;;1.67;;
69627;SDS011;56850;51.984;5.088;2022-08-30T09:07:22;8.18;;;1.73;;
69627;SDS011;56850;51.984;5.088;2022-08-30T09:09:51;4.07;;;1.75;;
69627;SDS011;56850;51.984;5.088;2022-08-30T09:12:18;3.53;;;1.50;;
69627;SDS011;56850;51.984;5.088;2022-08-30T09:14:47;2.88;;;1.42;;
69627;SDS011;56850;51.984;5.088;2022-08-30T09:17:21;4.20;;;2.20;;
69627;SDS011;56850;51.984;5.088;2022-08-30T09:22:20;4.95;;;1.80;;
69627;SDS011;56850;51.984;5.088;2022-08-30T09:24:49;2.20;;;1.40;;
69627;SDS011;56850;51.984;5.088;2022-08-30T09:27:26;4.65;;;1.27;;
69627;SDS011;56850;51.984;5.088;2022-08-30T09:29:58;2.65;;;1.70;;
69627;SDS011;56850;51.984;5.088;2022-08-30T09:32:48;4.80;;;1.60;;
69627;SDS011;56850;51.984;5.088;2022-08-30T09:35:22;2.25;;;1.60;;
69627;SDS011;56850;51.984;5.088;2022-08-30T09:37:52;3.45;;;1.80;;
69627;SDS011;56850;51.984;5.088;2022-08-30T09:43:05;6.90;;;1.67;;
69627;SDS011;56850;51.984;5.088;2022-08-30T09:45:46;3.65;;;1.55;;
69627;SDS011;56850;51.984;5.088;2022-08-30T09:48:38;4.97;;;1.92;;
69627;SDS011;56850;51.984;5.088;2022-08-30T10:10:58;3.92;;;1.80;;
69627;SDS011;56850;51.984;5.088;2022-08-30T10:16:30;7.43;;;1.77;;
69627;SDS011;56850;51.984;5.088;2022-08-30T10:21:42;2.22;;;1.52;;
69627;SDS011;56850;51.984;5.088;2022-08-30T10:24:25;3.03;;;1.48;;
69627;SDS011;56850;51.984;5.088;2022-08-30T10:27:03;2.95;;;1.90;;
69627;SDS011;56850;51.984;5.088;2022-08-30T10:29:41;2.75;;;1.50;;
69627;SDS011;56850;51.984;5.088;2022-08-30T10:32:22;3.80;;;1.65;;
69627;SDS011;56850;51.984;5.088;2022-08-30T10:35:11;6.50;;;1.70;;
69627;SDS011;56850;51.984;5.088;2022-08-30T10:38:07;5.13;;;1.45;;
69627;SDS011;56850;51.984;5.088;2022-08-30T10:40:45;2.45;;;1.50;;
69627;SDS011;56850;51.984;5.088;2022-08-30T10:43:40;2.42;;;1.50;;
69627;SDS011;56850;51.984;5.088;2022-08-30T10:47:16;4.55;;;1.63;;
69627;SDS011;56850;51.984;5.088;2022-08-30T10:49:40;5.25;;;1.90;;
69627;SDS011;56850;51.984;5.088;2022-08-30T10:52:28;2.38;;;1.70;;
69627;SDS011;56850;51.984;5.088;2022-08-30T10:54:58;2.00;;;1.70;;
69627;SDS011;56850;51.984;5.088;2022-08-30T10:57:31;3.55;;;1.60;;
69627;SDS011;56850;51.984;5.088;2022-08-30T11:00:05;5.35;;;2.00;;
69627;SDS011;56850;51.984;5.088;2022-08-30T11:13:41;3.47;;;1.50;;
69627;SDS011;56850;51.984;5.088;2022-08-30T11:16:11;3.42;;;1.60;;
69627;SDS011;56850;51.984;5.088;2022-08-30T11:18:52;2.22;;;1.55;;
69627;SDS011;56850;51.984;5.088;2022-08-30T11:21:23;2.28;;;1.63;;
69627;SDS011;56850;51.984;5.088;2022-08-30T11:24:06;8.77;;;1.55;;
69627;SDS011;56850;51.984;5.088;2022-08-30T11:31:58;3.28;;;1.60;;
69627;SDS011;56850;51.984;5.088;2022-08-30T11:47:54;2.22;;;1.25;;
69627;SDS011;56850;51.984;5.088;2022-08-30T11:56:48;4.40;;;1.55;;
69627;SDS011;56850;51.984;5.088;2022-08-30T12:01:36;4.43;;;1.80;;
69627;SDS011;56850;51.984;5.088;2022-08-30T12:12:05;4.72;;;1.40;;
69627;SDS011;56850;51.984;5.088;2022-08-30T12:17:28;2.42;;;1.58;;
69627;SDS011;56850;51.984;5.088;2022-08-30T12:20:44;4.30;;;1.53;;
69627;SDS011;56850;51.984;5.088;2022-08-30T12:23:16;6.07;;;1.90;;
69627;SDS011;56850;51.984;5.088;2022-08-30T12:25:49;3.03;;;1.40;;
69627;SDS011;56850;51.984;5.088;2022-08-30T12:29:06;4.28;;;1.65;;
69627;SDS011;56850;51.984;5.088;2022-08-30T12:31:43;3.20;;;1.70;;
69627;SDS011;56850;51.984;5.088;2022-08-30T12:34:22;5.27;;;1.70;;
69627;SDS011;56850;51.984;5.088;2022-08-30T12:37:32;4.15;;;1.80;;
69627;SDS011;56850;51.984;5.088;2022-08-30T12:43:00;4.40;;;1.52;;
69627;SDS011;56850;51.984;5.088;2022-08-30T12:45:31;6.90;;;1.70;;
69627;SDS011;56850;51.984;5.088;2022-08-30T12:48:10;3.77;;;1.50;;
69627;SDS011;56850;51.984;5.088;2022-08-30T12:53:34;4.15;;;1.65;;
69627;SDS011;56850;51.984;5.088;2022-08-30T12:56:06;3.35;;;1.50;;
69627;SDS011;56850;51.984;5.088;2022-08-30T12:58:42;2.03;;;1.30;;
69627;SDS011;56850;51.984;5.088;2022-08-30T13:01:16;3.07;;;1.80;;
69627;SDS011;56850;51.984;5.088;2022-08-30T13:06:39;4.55;;;1.63;;
69627;SDS011;56850;51.984;5.088;2022-08-30T13:11:58;2.03;;;1.50;;
69627;SDS011;56850;51.984;5.088;2022-08-30T13:14:37;2.73;;;1.90;;
69627;SDS011;56850;51.984;5.088;2022-08-30T13:20:00;6.22;;;1.48;;
69627;SDS011;56850;51.984;5.088;2022-08-30T13:22:37;3.80;;;1.70;;
69627;SDS011;56850;51.984;5.088;2022-08-30T13:25:09;5.13;;;1.63;;
69627;SDS011;56850;51.984;5.088;2022-08-30T13:27:38;2.60;;;1.67;;
69627;SDS011;56850;51.984;5.088;2022-08-30T13:30:09;4.68;;;1.77;;
69627;SDS011;56850;51.984;5.088;2022-08-30T13:32:40;5.03;;;1.73;;
69627;SDS011;56850;51.984;5.088;2022-08-30T13:35:07;3.05;;;1.58;;
69627;SDS011;56850;51.984;5.088;2022-08-30T13:37:35;6.05;;;1.90;;
69627;SDS011;56850;51.984;5.088;2022-08-30T13:40:19;4.33;;;1.73;;
69627;SDS011;56850;51.984;5.088;2022-08-30T13:42:47;6.07;;;1.70;;
69627;SDS011;56850;51.984;5.088;2022-08-30T13:45:16;3.67;;;1.75;;
69627;SDS011;56850;51.984;5.088;2022-08-30T13:48:05;4.63;;;2.08;;
69627;SDS011;56850;51.984;5.088;2022-08-30T13:50:32;6.93;;;1.90;;
69627;SDS011;56850;51.984;5.088;2022-08-30T13:52:59;2.67;;;1.90;;
69627;SDS011;56850;51.984;5.088;2022-08-30T13:55:25;3.22;;;1.70;;
69627;SDS011;56850;51.984;5.088;2022-08-30T13:57:53;3.78;;;2.00;;
69627;SDS011;56850;51.984;5.088;2022-08-30T14:00:22;3.78;;;1.95;;
69627;SDS011;56850;51.984;5.088;2022-08-30T14:02:50;2.00;;;1.40;;
69627;SDS011;56850;51.984;5.088;2022-08-30T14:05:24;3.63;;;1.60;;
69627;SDS011;56850;51.984;5.088;2022-08-30T14:08:23;5.55;;;2.03;;
69627;SDS011;56850;51.984;5.088;2022-08-30T14:11:14;4.50;;;1.77;;
69627;SDS011;56850;51.984;5.088;2022-08-30T14:13:44;5.13;;;1.75;;
69627;SDS011;56850;51.984;5.088;2022-08-30T14:16:31;2.83;;;1.60;;
69627;SDS011;56850;51.984;5.088;2022-08-30T14:18:59;3.70;;;1.67;;
69627;SDS011;56850;51.984;5.088;2022-08-30T14:21:27;2.65;;;1.45;;
69627;SDS011;56850;51.984;5.088;2022-08-30T14:23:54;4.20;;;1.70;;
69627;SDS011;56850;51.984;5.088;2022-08-30T14:26:25;4.50;;;2.10;;
69627;SDS011;56850;51.984;5.088;2022-08-30T14:28:59;2.08;;;1.65;;
69627;SDS011;56850;51.984;5.088;2022-08-30T14:31:27;4.87;;;1.93;;
69627;SDS011;56850;51.984;5.088;2022-08-30T14:33:58;3.47;;;1.70;;
69627;SDS011;56850;51.984;5.088;2022-08-30T14:36:25;3.88;;;1.80;;
69627;SDS011;56850;51.984;5.088;2022-08-30T14:38:52;4.50;;;1.83;;
69627;SDS011;56850;51.984;5.088;2022-08-30T14:41:18;4.60;;;1.90;;
69627;SDS011;56850;51.984;5.088;2022-08-30T14:43:45;3.50;;;1.60;;
69627;SDS011;56850;51.984;5.088;2022-08-30T14:46:12;5.57;;;1.63;;
69627;SDS011;56850;51.984;5.088;2022-08-30T14:48:39;4.70;;;2.03;;
69627;SDS011;56850;51.984;5.088;2022-08-30T14:51:15;5.07;;;1.83;;
69627;SDS011;56850;51.984;5.088;2022-08-30T14:53:44;2.38;;;1.70;;
69627;SDS011;56850;51.984;5.088;2022-08-30T14:56:13;5.73;;;2.00;;
69627;SDS011;56850;51.984;5.088;2022-08-30T14:58:41;5.53;;;2.30;;
69627;SDS011;56850;51.984;5.088;2022-08-30T15:01:09;4.35;;;1.70;;
69627;SDS011;56850;51.984;5.088;2022-08-30T15:03:38;8.23;;;2.00;;
69627;SDS011;56850;51.984;5.088;2022-08-30T15:06:07;6.15;;;2.38;;
69627;SDS011;56850;51.984;5.088;2022-08-30T15:08:34;5.27;;;2.60;;
69627;SDS011;56850;51.984;5.088;2022-08-30T15:11:06;5.88;;;2.30;;
69627;SDS011;56850;51.984;5.088;2022-08-30T15:13:34;3.88;;;1.90;;
69627;SDS011;56850;51.984;5.088;2022-08-30T15:16:07;3.55;;;1.80;;
69627;SDS011;56850;51.984;5.088;2022-08-30T15:18:39;3.03;;;1.95;;
69627;SDS011;56850;51.984;5.088;2022-08-30T15:21:07;4.43;;;2.50;;
69627;SDS011;56850;51.984;5.088;2022-08-30T15:23:35;6.22;;;2.25;;
69627;SDS011;56850;51.984;5.088;2022-08-30T15:26:03;4.22;;;2.90;;
69627;SDS011;56850;51.984;5.088;2022-08-30T15:28:31;5.32;;;1.90;;
69627;SDS011;56850;51.984;5.088;2022-08-30T15:30:58;5.22;;;2.30;;
69627;SDS011;56850;51.984;5.088;2022-08-30T15:33:30;5.53;;;1.83;;
69627;SDS011;56850;51.984;5.088;2022-08-30T15:36:00;6.63;;;2.40;;
69627;SDS011;56850;51.984;5.088;2022-08-30T15:38:29;10.60;;;2.38;;
69627;SDS011;56850;51.984;5.088;2022-08-30T15:40:56;4.28;;;1.90;;
69627;SDS011;56850;51.984;5.088;2022-08-30T15:43:27;4.97;;;1.77;;
69627;SDS011;56850;51.984;5.088;2022-08-30T15:45:56;4.90;;;2.00;;
69627;SDS011;56850;51.984;5.088;2022-08-30T15:48:57;3.75;;;1.80;;
69627;SDS011;56850;51.984;5.088;2022-08-30T15:51:26;5.38;;;1.92;;
69627;SDS011;56850;51.984;5.088;2022-08-30T15:53:56;8.35;;;2.00;;
69627;SDS011;56850;51.984;5.088;2022-08-30T15:56:23;3.40;;;1.70;;
69627;SDS011;56850;51.984;5.088;2022-08-30T15:58:50;7.23;;;1.90;;
69627;SDS011;56850;51.984;5.088;2022-08-30T16:01:18;4.25;;;1.60;;
69627;SDS011;56850;51.984;5.088;2022-08-30T16:03:56;4.18;;;1.55;;
69627;SDS011;56850;51.984;5.088;2022-08-30T16:06:26;2.95;;;1.77;;
69627;SDS011;56850;51.984;5.088;2022-08-30T16:08:54;5.53;;;1.75;;
69627;SDS011;56850;51.984;5.088;2022-08-30T16:11:22;3.60;;;1.70;;
69627;SDS011;56850;51.984;5.088;2022-08-30T16:13:50;4.57;;;1.70;;
69627;SDS011;56850;51.984;5.088;2022-08-30T16:16:19;5.28;;;1.70;;
69627;SDS011;56850;51.984;5.088;2022-08-30T16:18:47;5.20;;;1.83;;
69627;SDS011;56850;51.984;5.088;2022-08-30T16:21:23;4.07;;;1.60;;
69627;SDS011;56850;51.984;5.088;2022-08-30T16:23:56;5.05;;;1.73;;
69627;SDS011;56850;51.984;5.088;2022-08-30T16:26:25;2.97;;;1.63;;
69627;SDS011;56850;51.984;5.088;2022-08-30T16:28:54;4.97;;;1.60;;
69627;SDS011;56850;51.984;5.088;2022-08-30T16:31:22;4.15;;;1.42;;
69627;SDS011;56850;51.984;5.088;2022-08-30T16:33:51;5.22;;;1.60;;
69627;SDS011;56850;51.984;5.088;2022-08-30T16:36:20;3.30;;;1.70;;
69627;SDS011;56850;51.984;5.088;2022-08-30T16:38:48;4.75;;;1.90;;
69627;SDS011;56850;51.984;5.088;2022-08-30T16:41:20;2.95;;;1.50;;
69627;SDS011;56850;51.984;5.088;2022-08-30T16:43:50;4.65;;;1.52;;
69627;SDS011;56850;51.984;5.088;2022-08-30T16:46:19;2.28;;;1.40;;
69627;SDS011;56850;51.984;5.088;2022-08-30T16:48:53;2.13;;;1.50;;
69627;SDS011;56850;51.984;5.088;2022-08-30T16:51:26;3.95;;;1.70;;